Time;durP1;ratioP1;P1;durP2;ratioP2;P2;SDS_P1;SDS_P2;PMS_P1;PMS_P2;Temp;Humidity;BMP_temperature;BMP_pressure;BME280_temperature;BME280_humidity;BME280_pressure;Samples;Min_cycle;Max_cycle;Signal;HPM_P1;HPM_P2
2022/06/27 00:01:45;;;;;;;5.03;4.47;;;20.50;99.90;;;;;;5056251;28;20489;-55
2022/06/27 00:04:12;;;;;;;6.23;5.40;;;20.40;99.90;;;;;;5054385;28;20991;-55
2022/06/27 00:06:38;;;;;;;5.00;4.60;;;20.40;99.90;;;;;;5051794;28;20486;-55
2022/06/27 00:09:05;;;;;;;5.57;5.07;;;20.40;99.90;;;;;;5055408;28;20496;-56
2022/06/27 00:11:33;;;;;;;4.53;3.80;;;20.20;99.90;;;;;;5055963;28;20570;-57
2022/06/27 00:14:00;;;;;;;4.47;4.07;;;20.20;99.90;;;;;;5052826;28;20483;-56
2022/06/27 00:16:27;;;;;;;4.93;4.43;;;20.20;99.90;;;;;;5050337;28;20485;-57
2022/06/27 00:18:53;;;;;;;5.33;3.90;;;20.20;99.90;;;;;;5052345;28;20535;-57
2022/06/27 00:21:20;;;;;;;7.00;4.37;;;20.20;99.90;;;;;;5055966;28;20903;-57
2022/06/27 00:23:47;;;;;;;5.90;3.90;;;20.30;99.90;;;;;;5056372;28;20988;-56
2022/06/27 00:26:13;;;;;;;5.40;4.87;;;20.30;99.90;;;;;;5040788;28;20520;-58
2022/06/27 00:28:41;;;;;;;5.13;4.73;;;20.20;99.90;;;;;;5057702;28;20492;-57
2022/06/27 00:31:08;;;;;;;7.03;4.87;;;20.20;99.90;;;;;;5052614;28;20512;-57
2022/06/27 00:33:35;;;;;;;9.60;5.40;;;20.20;99.90;;;;;;5057474;28;20488;-57
2022/06/27 00:36:01;;;;;;;6.57;4.50;;;20.10;99.90;;;;;;5052793;28;20473;-57
2022/06/27 00:38:28;;;;;;;4.03;3.63;;;20.10;99.90;;;;;;5056665;28;20497;-57
2022/06/27 00:40:55;;;;;;;5.60;3.90;;;20.20;99.90;;;;;;5058875;28;20486;-57
2022/06/27 00:43:21;;;;;;;5.13;4.63;;;20.20;99.90;;;;;;5055837;28;20481;-57
2022/06/27 00:45:49;;;;;;;5.23;4.73;;;20.30;99.90;;;;;;5053861;28;20482;-57
2022/06/27 00:48:16;;;;;;;5.37;4.90;;;20.30;99.90;;;;;;5055568;28;20807;-57
2022/06/27 00:50:43;;;;;;;5.20;4.47;;;20.40;99.90;;;;;;5055618;28;20497;-57
2022/06/27 00:53:11;;;;;;;5.43;4.93;;;20.40;99.90;;;;;;5055371;28;20989;-57
2022/06/27 00:55:37;;;;;;;5.40;4.70;;;20.40;99.90;;;;;;5052765;28;20772;-57
2022/06/27 00:58:04;;;;;;;4.50;4.10;;;20.40;99.90;;;;;;5053963;28;20984;-57
2022/06/27 01:00:31;;;;;;;3.80;3.50;;;20.40;99.90;;;;;;5057355;28;20482;-57
2022/06/27 01:02:59;;;;;;;4.90;4.40;;;20.50;99.90;;;;;;5055683;28;20970;-57
2022/06/27 01:05:26;;;;;;;5.67;4.80;;;20.40;99.90;;;;;;5059058;28;21191;-57
2022/06/27 01:07:53;;;;;;;5.47;4.97;;;20.50;99.90;;;;;;5056424;28;20472;-57
2022/06/27 01:10:20;;;;;;;5.50;4.73;;;20.50;99.90;;;;;;5056466;28;20481;-56
2022/06/27 01:12:49;;;;;;;5.23;4.20;;;20.50;99.90;;;;;;5054829;28;20845;-57
2022/06/27 01:15:15;;;;;;;4.60;4.20;;;20.50;99.90;;;;;;5053444;28;20647;-57
2022/06/27 01:17:42;;;;;;;4.80;4.40;;;20.40;99.90;;;;;;5054447;28;20481;-58
2022/06/27 01:20:11;;;;;;;4.50;4.10;;;20.30;99.90;;;;;;5052834;28;20484;-58
2022/06/27 01:22:39;;;;;;;6.60;4.43;;;20.30;99.90;;;;;;5057170;28;20869;-58
2022/06/27 01:25:07;;;;;;;5.60;4.90;;;20.30;99.90;;;;;;5057908;28;20494;-58
2022/06/27 01:27:34;;;;;;;4.90;4.30;;;20.20;99.90;;;;;;5058178;28;20477;-58
2022/06/27 01:30:02;;;;;;;5.40;4.83;;;20.20;99.90;;;;;;5056666;28;20477;-58
2022/06/27 01:32:29;;;;;;;7.00;4.83;;;20.10;99.90;;;;;;5055233;28;21006;-58
2022/06/27 01:34:55;;;;;;;4.93;4.30;;;20.00;99.90;;;;;;5060201;28;20863;-59
2022/06/27 01:37:22;;;;;;;6.83;5.03;;;20.10;99.90;;;;;;5058713;28;20491;-58
2022/06/27 01:39:50;;;;;;;7.40;5.87;;;20.10;99.90;;;;;;5060035;28;20480;-58
2022/06/27 01:42:17;;;;;;;7.30;5.57;;;20.10;99.90;;;;;;5060036;28;20482;-58
2022/06/27 01:44:43;;;;;;;4.93;4.43;;;20.10;99.90;;;;;;5062115;28;21053;-58
2022/06/27 01:47:11;;;;;;;6.20;5.60;;;20.20;99.90;;;;;;5056364;28;20865;-58
2022/06/27 01:49:39;;;;;;;6.00;5.40;;;20.10;99.90;;;;;;5059567;28;20477;-58
2022/06/27 01:52:07;;;;;;;5.00;4.60;;;20.10;99.90;;;;;;5058626;28;21011;-58
2022/06/27 01:54:35;;;;;;;12.37;6.00;;;20.10;99.90;;;;;;5056760;28;20483;-59
2022/06/27 01:57:04;;;;;;;6.13;5.00;;;20.00;99.90;;;;;;5058797;28;21008;-58
2022/06/27 01:59:33;;;;;;;5.13;4.50;;;20.00;99.90;;;;;;5058747;28;20829;-58
2022/06/27 02:02:02;;;;;;;6.03;4.87;;;20.00;99.90;;;;;;5055149;28;20486;-58
2022/06/27 02:04:31;;;;;;;5.20;4.80;;;20.20;99.90;;;;;;5054449;28;20488;-59
2022/06/27 02:06:58;;;;;;;6.27;5.67;;;20.20;99.90;;;;;;5050844;28;20486;-59
2022/06/27 02:09:25;;;;;;;5.63;5.00;;;20.30;99.90;;;;;;5048172;28;20482;-59
2022/06/27 02:11:55;;;;;;;5.43;4.93;;;20.20;99.90;;;;;;5061008;28;20498;-59
2022/06/27 02:14:23;;;;;;;4.63;4.10;;;20.30;99.90;;;;;;5059255;28;20991;-59
2022/06/27 02:16:50;;;;;;;5.97;5.37;;;20.40;99.90;;;;;;5046360;28;20482;-59
2022/06/27 02:19:19;;;;;;;5.80;5.33;;;20.40;99.90;;;;;;5057383;28;20488;-59
2022/06/27 02:21:47;;;;;;;5.07;4.67;;;20.40;99.90;;;;;;5061162;28;20480;-60
2022/06/27 02:24:14;;;;;;;5.40;4.90;;;20.40;99.90;;;;;;5054232;28;20562;-61
2022/06/27 02:26:42;;;;;;;8.60;5.67;;;20.20;99.90;;;;;;5051291;28;20495;-58
2022/06/27 02:29:09;;;;;;;7.17;5.90;;;20.00;99.90;;;;;;5058778;28;20517;-60
2022/06/27 02:31:45;;;;;;;6.43;5.33;;;19.90;99.90;;;;;;5061873;28;20494;-59
2022/06/27 02:34:13;;;;;;;6.03;5.40;;;19.80;99.90;;;;;;5056912;28;20954;-59
2022/06/27 02:36:41;;;;;;;6.40;5.87;;;19.80;99.90;;;;;;5048507;28;20929;-60
2022/06/27 02:39:09;;;;;;;6.50;5.90;;;19.80;99.90;;;;;;5060434;28;20492;-59
2022/06/27 02:41:40;;;;;;;5.73;5.07;;;19.90;99.90;;;;;;5054477;28;20492;-60
2022/06/27 02:44:10;;;;;;;6.83;5.20;;;19.90;99.90;;;;;;5056867;28;20820;-60
2022/06/27 02:46:38;;;;;;;6.30;5.70;;;19.90;99.90;;;;;;5056849;28;20489;-60
2022/06/27 02:49:05;;;;;;;8.57;5.77;;;19.90;99.90;;;;;;5058154;28;20483;-60
2022/06/27 02:51:41;;;;;;;7.00;5.47;;;19.80;99.90;;;;;;5059743;28;20479;-60
2022/06/27 02:54:11;;;;;;;6.80;5.33;;;19.90;99.90;;;;;;5055190;28;20998;-60
2022/06/27 02:56:52;;;;;;;7.90;5.67;;;19.90;99.90;;;;;;5054999;28;20494;-59
2022/06/27 02:59:23;;;;;;;12.70;5.40;;;19.90;99.90;;;;;;5054608;28;21010;-60
2022/06/27 03:01:52;;;;;;;6.50;5.87;;;20.00;99.90;;;;;;5058118;28;20596;-60
2022/06/27 03:04:19;;;;;;;6.93;6.30;;;20.00;99.90;;;;;;5058529;28;20474;-58
2022/06/27 03:06:46;;;;;;;7.43;6.70;;;20.10;99.90;;;;;;5046282;28;20499;-59
2022/06/27 03:09:13;;;;;;;9.63;5.93;;;20.20;99.90;;;;;;5062541;28;20537;-59
2022/06/27 03:11:40;;;;;;;8.03;5.63;;;20.30;99.90;;;;;;5054966;28;20475;-59
2022/06/27 03:14:07;;;;;;;6.70;6.10;;;20.20;99.90;;;;;;5056851;28;21001;-59
2022/06/27 03:16:34;;;;;;;8.63;5.60;;;20.10;99.90;;;;;;5050956;28;20860;-59
2022/06/27 03:19:04;;;;;;;9.73;8.27;;;20.00;99.90;;;;;;5055283;28;20481;-59
2022/06/27 03:21:31;;;;;;;6.60;6.00;;;20.00;99.90;;;;;;5061835;28;20557;-59
2022/06/27 03:23:57;;;;;;;6.70;5.43;;;19.90;99.90;;;;;;5049357;28;22533;-58
2022/06/27 03:26:24;;;;;;;5.83;5.07;;;19.80;99.90;;;;;;5049438;28;20489;-58
2022/06/27 03:28:51;;;;;;;7.50;5.87;;;20.00;99.90;;;;;;5038685;28;20871;-58
2022/06/27 03:31:17;;;;;;;7.30;6.60;;;20.00;99.90;;;;;;5057311;28;20471;-58
2022/06/27 03:33:44;;;;;;;10.43;7.53;;;20.10;99.90;;;;;;5034084;28;20571;-58
2022/06/27 03:36:12;;;;;;;10.90;7.87;;;20.00;99.90;;;;;;5042992;28;21340;-58
2022/06/27 03:38:39;;;;;;;13.00;8.70;;;20.00;99.90;;;;;;5052275;28;20542;-58
2022/06/27 03:41:05;;;;;;;9.43;8.43;;;20.00;99.90;;;;;;5055705;28;20494;-58
2022/06/27 03:43:32;;;;;;;9.87;8.33;;;20.00;99.90;;;;;;5039828;28;20499;-58
2022/06/27 03:45:59;;;;;;;12.50;9.73;;;20.00;99.90;;;;;;5046525;28;20486;-58
2022/06/27 03:51:12;;;;;;;16.77;11.00;;;19.90;99.90;;;;;;5059935;28;20523;-58
2022/06/27 03:53:38;;;;;;;22.03;10.53;;;19.90;99.90;;;;;;5027439;28;20548;-58
2022/06/27 03:56:05;;;;;;;12.13;10.83;;;19.90;99.90;;;;;;5049660;28;20482;-58
2022/06/27 03:58:32;;;;;;;12.23;9.60;;;20.00;99.90;;;;;;5057811;28;20482;-58
2022/06/27 04:01:00;;;;;;;15.87;11.10;;;20.10;99.90;;;;;;5043234;28;20470;-58
2022/06/27 04:03:27;;;;;;;14.07;9.90;;;20.10;99.90;;;;;;5025985;28;20492;-59
2022/06/27 04:05:54;;;;;;;16.60;10.13;;;20.20;99.90;;;;;;5043094;28;20487;-59
2022/06/27 04:08:23;;;;;;;10.97;9.60;;;20.20;99.90;;;;;;5043090;28;20498;-58
2022/06/27 04:10:50;;;;;;;14.03;10.50;;;20.20;99.90;;;;;;5051649;28;20834;-59
2022/06/27 04:13:16;;;;;;;10.53;8.63;;;20.20;99.90;;;;;;5029209;28;20485;-59
2022/06/27 04:15:43;;;;;;;16.10;9.03;;;20.30;99.90;;;;;;5051305;28;20690;-59
2022/06/27 04:18:10;;;;;;;12.73;10.20;;;20.20;99.90;;;;;;5014560;28;20515;-59
2022/06/27 04:20:36;;;;;;;15.37;8.93;;;20.30;99.90;;;;;;5033669;28;20481;-58
2022/06/27 04:23:03;;;;;;;12.43;9.67;;;20.30;99.90;;;;;;5047512;28;20480;-59
2022/06/27 04:25:31;;;;;;;15.40;9.57;;;20.20;99.90;;;;;;5047133;28;20489;-58
2022/06/27 04:27:58;;;;;;;14.80;8.90;;;20.40;99.90;;;;;;5045544;28;20504;-58
2022/06/27 04:30:25;;;;;;;17.33;10.73;;;20.50;99.90;;;;;;5022019;28;20477;-58
2022/06/27 04:32:52;;;;;;;14.03;8.90;;;20.50;99.90;;;;;;5038202;28;20553;-58
2022/06/27 04:35:19;;;;;;;16.10;12.00;;;20.40;99.90;;;;;;5029349;28;20841;-58
2022/06/27 04:37:47;;;;;;;13.93;11.77;;;20.40;99.90;;;;;;5021583;28;20569;-58
2022/06/27 04:40:14;;;;;;;14.67;11.20;;;20.30;99.90;;;;;;5036820;28;20491;-59
2022/06/27 04:42:43;;;;;;;14.80;12.70;;;20.30;99.90;;;;;;5051973;28;20896;-59
2022/06/27 04:45:12;;;;;;;15.17;12.37;;;20.30;99.90;;;;;;5053905;28;20544;-58
2022/06/27 04:47:40;;;;;;;16.07;13.10;;;20.20;99.90;;;;;;5048107;28;21028;-55
2022/06/27 04:50:08;;;;;;;19.13;14.27;;;20.20;99.90;;;;;;5051175;28;20493;-58
2022/06/27 04:52:35;;;;;;;16.20;12.63;;;20.20;99.90;;;;;;5056757;28;20474;-59
2022/06/27 04:55:02;;;;;;;20.07;12.90;;;20.20;99.90;;;;;;5032012;28;20502;-58
2022/06/27 04:57:29;;;;;;;23.63;14.97;;;20.20;99.90;;;;;;5053984;28;20486;-57
2022/06/27 04:59:57;;;;;;;21.17;14.53;;;20.20;99.90;;;;;;5043710;28;20470;-58
2022/06/27 05:02:23;;;;;;;20.20;14.07;;;20.00;99.90;;;;;;5056861;28;21073;-58
2022/06/27 05:04:50;;;;;;;21.77;14.00;;;20.00;99.90;;;;;;5056999;28;20711;-57
2022/06/27 05:07:17;;;;;;;21.83;15.30;;;20.00;99.90;;;;;;5054893;28;20481;-58
2022/06/27 05:09:45;;;;;;;18.50;12.37;;;20.00;99.90;;;;;;5060822;28;20493;-58
2022/06/27 05:12:12;;;;;;;18.80;13.40;;;20.00;99.90;;;;;;5056907;28;20493;-58
2022/06/27 05:14:39;;;;;;;19.50;13.77;;;20.00;99.90;;;;;;5051289;28;20488;-58
2022/06/27 05:17:07;;;;;;;23.00;14.17;;;20.00;99.90;;;;;;5047268;28;20488;-59
2022/06/27 05:19:33;;;;;;;20.20;14.37;;;19.80;99.90;;;;;;5051082;28;20487;-58
2022/06/27 05:22:00;;;;;;;18.90;13.50;;;19.80;99.90;;;;;;5048854;28;20631;-57
2022/06/27 05:24:27;;;;;;;17.80;13.70;;;19.70;99.90;;;;;;5056936;28;20485;-57
2022/06/27 05:26:54;;;;;;;18.93;12.27;;;19.70;99.90;;;;;;5052177;28;20482;-57
2022/06/27 05:29:22;;;;;;;16.03;11.80;;;19.80;99.90;;;;;;5055598;28;20585;-56
2022/06/27 05:31:49;;;;;;;15.73;12.10;;;19.90;99.90;;;;;;5048886;28;20481;-56
2022/06/27 05:34:17;;;;;;;13.80;11.17;;;19.90;99.90;;;;;;5054204;28;21055;-55
2022/06/27 05:36:44;;;;;;;13.33;9.87;;;19.80;99.90;;;;;;5053706;28;20494;-53
2022/06/27 05:39:11;;;;;;;13.73;10.70;;;19.80;99.90;;;;;;5055691;28;20971;-56
2022/06/27 05:41:38;;;;;;;13.47;10.63;;;19.80;99.90;;;;;;5052274;28;20483;-56
2022/06/27 05:44:05;;;;;;;12.37;9.20;;;19.80;99.90;;;;;;5055573;28;20478;-56
2022/06/27 05:46:32;;;;;;;20.33;10.50;;;19.90;99.90;;;;;;5049728;28;20479;-56
2022/06/27 05:49:00;;;;;;;13.13;10.47;;;19.80;99.90;;;;;;5052781;28;20478;-56
2022/06/27 05:51:29;;;;;;;12.90;10.23;;;19.90;99.90;;;;;;5055417;28;20485;-56
2022/06/27 05:53:57;;;;;;;12.20;10.03;;;19.90;99.90;;;;;;5055121;28;20860;-56
2022/06/27 05:56:24;;;;;;;12.10;8.70;;;19.90;99.90;;;;;;5037399;28;20515;-57
2022/06/27 05:58:51;;;;;;;13.67;9.60;;;20.10;99.90;;;;;;5014676;28;21026;-56
2022/06/27 06:01:19;;;;;;;11.77;8.30;;;20.10;99.90;;;;;;5050707;28;20996;-56
2022/06/27 06:03:46;;;;;;;10.53;9.23;;;20.10;99.90;;;;;;5053872;28;20482;-57
2022/06/27 06:06:13;;;;;;;13.23;10.40;;;20.10;99.90;;;;;;5047727;28;20516;-56
2022/06/27 06:08:43;;;;;;;17.43;10.03;;;20.10;99.90;;;;;;5058922;28;20879;-57
2022/06/27 06:11:09;;;;;;;14.03;9.57;;;20.20;99.90;;;;;;5059872;28;20485;-56
2022/06/27 06:13:36;;;;;;;13.37;10.20;;;20.10;99.90;;;;;;5060014;28;20490;-56
2022/06/27 06:16:06;;;;;;;14.80;10.80;;;20.00;99.90;;;;;;5056314;28;20478;-53
2022/06/27 06:18:34;;;;;;;11.67;10.47;;;20.20;99.90;;;;;;5060190;28;20482;-54
2022/06/27 06:21:01;;;;;;;12.90;10.10;;;20.10;99.90;;;;;;5056323;28;20471;-56
2022/06/27 06:23:28;;;;;;;12.53;10.00;;;20.30;99.90;;;;;;5057393;28;20489;-55
2022/06/27 06:25:56;;;;;;;13.47;10.13;;;20.20;99.90;;;;;;5050841;28;20573;-56
2022/06/27 06:28:23;;;;;;;11.30;10.10;;;20.30;99.90;;;;;;5035828;28;20490;-57
2022/06/27 06:30:50;;;;;;;16.47;9.93;;;20.20;99.90;;;;;;5041608;28;20494;-54
2022/06/27 06:33:16;;;;;;;16.93;10.77;;;20.00;99.90;;;;;;5053243;28;20487;-57
2022/06/27 06:35:44;;;;;;;9.70;8.60;;;20.00;99.90;;;;;;5055331;28;21010;-56
2022/06/27 06:38:11;;;;;;;8.97;8.07;;;20.00;99.90;;;;;;5056583;28;20482;-55
2022/06/27 06:40:38;;;;;;;9.80;8.43;;;20.00;99.90;;;;;;5060020;28;20477;-55
2022/06/27 06:43:06;;;;;;;9.13;8.00;;;20.00;99.90;;;;;;5058697;28;20478;-57
2022/06/27 06:45:33;;;;;;;13.27;7.87;;;20.00;99.90;;;;;;5043866;28;20495;-56
2022/06/27 06:48:00;;;;;;;9.43;6.73;;;20.00;99.90;;;;;;5055789;28;20487;-57
2022/06/27 06:50:27;;;;;;;8.70;6.70;;;20.00;99.90;;;;;;5059725;28;21100;-57
2022/06/27 06:52:54;;;;;;;8.77;7.40;;;20.10;99.90;;;;;;5053198;28;20489;-56
2022/06/27 06:55:24;;;;;;;10.73;7.33;;;20.50;99.90;;;;;;5056223;28;20572;-57
2022/06/27 06:57:51;;;;;;;8.97;6.40;;;20.80;99.90;;;;;;5045156;28;20504;-57
2022/06/27 07:00:20;;;;;;;12.03;6.87;;;20.90;99.90;;;;;;5062482;28;20509;-58
2022/06/27 07:02:48;;;;;;;8.57;7.60;;;20.80;99.90;;;;;;5065262;28;20486;-57
2022/06/27 07:05:16;;;;;;;8.33;6.00;;;20.70;99.90;;;;;;5062962;28;20470;-58
2022/06/27 07:07:43;;;;;;;13.10;6.97;;;20.70;99.90;;;;;;5055952;28;20521;-58
2022/06/27 07:10:11;;;;;;;6.90;5.97;;;20.60;99.90;;;;;;5062708;28;20838;-58
2022/06/27 07:12:38;;;;;;;8.10;6.03;;;20.60;99.90;;;;;;5060593;28;20473;-58
2022/06/27 07:15:09;;;;;;;9.20;6.30;;;20.40;99.90;;;;;;5052952;28;20498;-58
2022/06/27 07:17:42;;;;;;;10.50;6.60;;;20.40;99.90;;;;;;5055629;28;20487;-58
2022/06/27 07:20:10;;;;;;;10.47;5.77;;;20.40;99.90;;;;;;5047462;28;20501;-58
2022/06/27 07:22:38;;;;;;;10.90;5.70;;;20.50;99.90;;;;;;5058343;28;20569;-57
2022/06/27 07:25:06;;;;;;;7.57;6.20;;;20.50;99.90;;;;;;5061174;28;20482;-57
2022/06/27 07:27:34;;;;;;;7.57;4.67;;;20.50;99.90;;;;;;5056239;28;20488;-58
2022/06/27 07:30:01;;;;;;;6.60;6.00;;;20.50;99.90;;;;;;5062614;28;20472;-57
2022/06/27 07:32:29;;;;;;;5.30;4.70;;;20.40;99.90;;;;;;5058852;28;20489;-57
2022/06/27 07:34:59;;;;;;;6.53;5.90;;;20.50;99.90;;;;;;5057162;28;20505;-58
2022/06/27 07:37:26;;;;;;;7.50;6.23;;;20.50;99.90;;;;;;5048103;28;21057;-57
2022/06/27 07:39:53;;;;;;;11.93;6.57;;;20.80;99.90;;;;;;5059640;28;20489;-57
2022/06/27 07:42:20;;;;;;;7.87;5.50;;;20.80;99.90;;;;;;5064341;28;20561;-57
2022/06/27 07:44:47;;;;;;;6.03;5.40;;;21.10;99.90;;;;;;5056102;28;20905;-56
2022/06/27 07:47:14;;;;;;;12.10;6.40;;;21.20;99.90;;;;;;5052692;28;20494;-58
2022/06/27 07:49:41;;;;;;;9.70;7.57;;;21.30;99.90;;;;;;5038363;28;20878;-56
2022/06/27 07:52:09;;;;;;;9.43;7.50;;;21.40;99.90;;;;;;5039904;28;20480;-54
2022/06/27 07:54:35;;;;;;;14.30;6.47;;;21.30;99.90;;;;;;5057750;28;20503;-56
2022/06/27 07:57:03;;;;;;;8.17;7.27;;;21.30;99.90;;;;;;5054791;28;20479;-55
2022/06/27 07:59:30;;;;;;;9.00;8.20;;;21.20;99.90;;;;;;5057358;28;20490;-54
2022/06/27 08:01:57;;;;;;;8.60;7.60;;;21.10;99.90;;;;;;5038791;28;20487;-54
2022/06/27 08:04:23;;;;;;;9.17;7.43;;;21.20;99.90;;;;;;5051575;28;20486;-54
2022/06/27 08:06:51;;;;;;;7.33;6.50;;;21.40;99.90;;;;;;5053040;28;20476;-55
2022/06/27 08:09:21;;;;;;;7.33;6.57;;;21.50;99.90;;;;;;5056435;28;20486;-57
2022/06/27 08:11:48;;;;;;;9.10;6.90;;;21.50;99.90;;;;;;5048882;28;20496;-54
2022/06/27 08:14:17;;;;;;;8.10;7.40;;;21.50;99.90;;;;;;5055702;28;20486;-54
2022/06/27 08:16:46;;;;;;;11.97;7.57;;;21.30;99.90;;;;;;5057256;28;20512;-55
2022/06/27 08:19:13;;;;;;;8.47;7.10;;;21.30;99.90;;;;;;5061247;28;20490;-53
2022/06/27 08:21:41;;;;;;;10.10;7.07;;;21.40;99.90;;;;;;5057147;28;20469;-53
2022/06/27 08:24:09;;;;;;;8.53;7.73;;;21.40;99.90;;;;;;5059807;28;20469;-53
2022/06/27 08:26:37;;;;;;;8.77;7.87;;;21.50;99.90;;;;;;5055450;28;20559;-53
2022/06/27 08:29:05;;;;;;;8.03;7.23;;;21.50;99.90;;;;;;5043847;28;20486;-53
2022/06/27 08:31:34;;;;;;;7.80;6.10;;;21.70;99.90;;;;;;5055986;28;20502;-54
2022/06/27 08:34:02;;;;;;;8.10;7.00;;;21.70;99.90;;;;;;5052288;28;21381;-55
2022/06/27 08:36:30;;;;;;;6.60;5.97;;;21.60;99.90;;;;;;5053619;28;20482;-55
2022/06/27 08:38:58;;;;;;;9.50;6.30;;;21.50;99.90;;;;;;5054922;28;20638;-54
2022/06/27 08:41:26;;;;;;;8.10;6.03;;;21.50;99.90;;;;;;5057002;28;20561;-53
2022/06/27 08:44:00;;;;;;;5.73;5.00;;;21.20;99.90;;;;;;5060509;28;20497;-54
2022/06/27 08:46:28;;;;;;;6.83;5.30;;;21.10;99.90;;;;;;5054985;28;20716;-55
2022/06/27 08:48:56;;;;;;;8.13;6.17;;;21.10;99.90;;;;;;5054560;28;20477;-53
2022/06/27 08:51:23;;;;;;;11.80;5.53;;;21.00;99.90;;;;;;5059613;28;20552;-53
2022/06/27 08:53:52;;;;;;;5.77;5.20;;;20.90;99.90;;;;;;5057738;28;20483;-53
2022/06/27 08:56:19;;;;;;;5.03;4.63;;;20.80;99.90;;;;;;5045705;28;20482;-52
2022/06/27 08:58:46;;;;;;;9.23;5.67;;;20.80;99.90;;;;;;5060370;28;20553;-53
2022/06/27 09:01:19;;;;;;;8.40;5.30;;;20.80;99.90;;;;;;5056727;28;20476;-53
2022/06/27 09:03:58;;;;;;;10.70;5.90;;;20.70;99.90;;;;;;5049343;28;20499;-54
2022/06/27 09:06:26;;;;;;;10.53;5.43;;;20.70;99.90;;;;;;5054581;28;20484;-53
2022/06/27 09:09:03;;;;;;;5.07;4.67;;;20.70;99.90;;;;;;5055057;28;20486;-53
2022/06/27 09:11:32;;;;;;;6.07;5.47;;;20.50;99.90;;;;;;5054075;28;20965;-53
2022/06/27 09:14:00;;;;;;;6.20;5.60;;;20.50;99.90;;;;;;5056596;28;20565;-53
2022/06/27 09:16:28;;;;;;;4.90;4.47;;;20.50;99.90;;;;;;5043719;28;20497;-53
2022/06/27 09:18:55;;;;;;;6.90;5.03;;;20.40;99.90;;;;;;5052798;28;20490;-54
2022/06/27 09:21:22;;;;;;;5.83;5.33;;;20.40;99.90;;;;;;5054890;28;20482;-54
2022/06/27 09:23:50;;;;;;;10.83;4.37;;;20.50;99.90;;;;;;5050664;28;20492;-56
2022/06/27 09:26:19;;;;;;;5.83;5.30;;;20.50;99.90;;;;;;5048675;28;20938;-54
2022/06/27 09:28:52;;;;;;;7.00;5.07;;;20.50;99.90;;;;;;5049335;28;20843;-55
2022/06/27 09:31:37;;;;;;;10.00;6.07;;;20.50;99.90;;;;;;5048703;28;20480;-54
2022/06/27 09:34:08;;;;;;;11.93;5.10;;;20.60;99.90;;;;;;5052429;28;20848;-54
2022/06/27 09:36:37;;;;;;;6.07;4.93;;;20.70;99.90;;;;;;5052914;28;20478;-57
2022/06/27 09:39:06;;;;;;;6.70;4.33;;;20.70;99.90;;;;;;5055350;28;20483;-54
2022/06/27 09:41:36;;;;;;;5.40;4.50;;;20.70;99.90;;;;;;5050314;28;20479;-54
2022/06/27 09:44:10;;;;;;;5.77;5.17;;;20.70;99.90;;;;;;5058818;28;20802;-53
2022/06/27 09:46:42;;;;;;;4.40;4.10;;;20.70;99.90;;;;;;5059681;28;20480;-55
2022/06/27 09:49:12;;;;;;;5.10;3.70;;;20.80;99.90;;;;;;5061281;28;20551;-53
2022/06/27 09:51:40;;;;;;;4.97;4.13;;;20.80;99.90;;;;;;5058736;28;20983;-54
2022/06/27 09:54:11;;;;;;;4.50;4.10;;;20.90;99.90;;;;;;5052292;28;20486;-54
2022/06/27 09:56:39;;;;;;;4.70;4.00;;;21.10;99.90;;;;;;5056367;28;20960;-54
2022/06/27 09:59:07;;;;;;;3.60;3.30;;;21.10;99.90;;;;;;5061875;28;20476;-54
2022/06/27 10:01:35;;;;;;;3.90;3.50;;;;;;;;;;5056163;28;20484;-54
2022/06/27 10:04:04;;;;;;;4.23;3.83;;;21.20;99.90;;;;;;5056492;28;20496;-54
2022/06/27 10:06:31;;;;;;;4.03;3.17;;;21.10;99.90;;;;;;5049447;28;20834;-54
2022/06/27 10:09:00;;;;;;;4.23;3.83;;;21.00;99.90;;;;;;5051330;28;20478;-55
2022/06/27 10:11:27;;;;;;;3.40;3.10;;;21.10;99.90;;;;;;5051611;28;20986;-54
2022/06/27 10:14:13;;;;;;;3.70;3.27;;;21.10;99.90;;;;;;5058889;28;20725;-55
2022/06/27 10:16:52;;;;;;;3.70;3.40;;;21.10;99.90;;;;;;5052621;28;20497;-54
2022/06/27 10:19:20;;;;;;;3.70;3.40;;;21.10;99.90;;;;;;5058545;28;20550;-56
2022/06/27 10:21:49;;;;;;;5.63;3.40;;;21.20;99.90;;;;;;5059944;28;20473;-54
2022/06/27 10:24:35;;;;;;;8.43;2.70;;;21.20;99.80;;;;;;5024687;28;20480;-54
2022/06/27 10:27:07;;;;;;;4.77;3.23;;;21.00;99.90;;;;;;5052736;28;21402;-54
2022/06/27 10:29:39;;;;;;;4.10;2.60;;;21.00;99.90;;;;;;5052795;28;20499;-55
2022/06/27 10:32:08;;;;;;;3.03;2.80;;;21.10;99.90;;;;;;5055486;28;20484;-53
2022/06/27 10:35:09;;;;;;;2.50;2.30;;;21.10;99.90;;;;;;5056699;28;21045;-54
2022/06/27 10:37:37;;;;;;;3.07;2.10;;;21.10;99.90;;;;;;5050211;28;20469;-54
2022/06/27 10:40:55;;;;;;;4.97;2.77;;;21.10;99.70;;;;;;5055091;28;20477;-53
2022/06/27 10:43:38;;;;;;;3.33;2.73;;;21.20;99.80;;;;;;5047333;28;20956;-53
2022/06/27 10:46:53;;;;;;;2.90;2.60;;;21.10;99.10;;;;;;5049710;28;20852;-53
2022/06/27 10:49:25;;;;;;;3.97;2.10;;;21.00;99.20;;;;;;5042861;28;20470;-56
2022/06/27 10:52:11;;;;;;;4.20;2.60;;;21.10;99.30;;;;;;5056946;28;20550;-57
2022/06/27 10:54:38;;;;;;;3.27;2.37;;;21.10;99.40;;;;;;5056370;28;20925;-55
2022/06/27 10:57:05;;;;;;;3.17;2.30;;;21.10;99.90;;;;;;5052990;28;20844;-55
2022/06/27 11:00:04;;;;;;;3.33;2.43;;;21.30;99.20;;;;;;5058398;28;20496;-54
2022/06/27 11:02:33;;;;;;;2.37;2.03;;;21.30;99.50;;;;;;5057874;28;20948;-55
2022/06/27 11:05:01;;;;;;;3.27;2.97;;;21.50;99.30;;;;;;5057707;28;20836;-55
2022/06/27 11:07:30;;;;;;;2.87;2.13;;;21.70;98.80;;;;;;5051903;28;20505;-57
2022/06/27 11:09:56;;;;;;;3.43;3.10;;;21.80;98.40;;;;;;5056087;28;20489;-55
2022/06/27 11:12:30;;;;;;;2.60;2.40;;;21.90;98.20;;;;;;5050004;28;20486;-54
2022/06/27 11:14:59;;;;;;;3.17;2.87;;;22.00;98.30;;;;;;5050853;28;20953;-55
2022/06/27 11:17:38;;;;;;;2.53;2.20;;;22.10;98.40;;;;;;5053959;28;20496;-55
2022/06/27 11:20:13;;;;;;;2.70;2.50;;;22.20;97.80;;;;;;5055698;28;20572;-57
2022/06/27 11:22:42;;;;;;;4.83;2.30;;;22.30;97.10;;;;;;5059159;28;20481;-56
2022/06/27 11:25:09;;;;;;;3.23;2.93;;;22.40;97.20;;;;;;5057252;28;20609;-56
2022/06/27 11:27:55;;;;;;;12.23;2.77;;;22.50;97.50;;;;;;5046992;28;21041;-55
2022/06/27 11:33:18;;;;;;;2.60;2.40;;;22.80;96.10;;;;;;5057439;28;20939;-55
2022/06/27 11:35:44;;;;;;;2.13;1.90;;;23.00;96.70;;;;;;5045707;28;20479;-56
2022/06/27 11:38:13;;;;;;;2.40;2.20;;;23.10;96.60;;;;;;5055000;28;20479;-54
2022/06/27 11:40:40;;;;;;;7.33;3.00;;;23.30;96.10;;;;;;5056081;28;20482;-55
2022/06/27 11:43:08;;;;;;;2.30;2.10;;;23.40;96.60;;;;;;5056090;28;20544;-56
2022/06/27 11:45:44;;;;;;;2.60;2.40;;;23.40;95.60;;;;;;5055811;28;20578;-56
2022/06/27 11:48:15;;;;;;;8.57;1.90;;;23.40;95.90;;;;;;5056633;28;20745;-55
2022/06/27 11:50:43;;;;;;;2.70;1.53;;;23.30;94.80;;;;;;5060627;28;21035;-55
2022/06/27 11:53:10;;;;;;;2.83;2.00;;;23.10;94.70;;;;;;5041786;28;20579;-53
2022/06/27 11:55:38;;;;;;;3.43;2.00;;;23.00;94.40;;;;;;5055940;28;20510;-56
2022/06/27 11:58:06;;;;;;;5.50;2.10;;;23.00;95.10;;;;;;5056190;28;20482;-53
2022/06/27 12:00:34;;;;;;;3.80;1.67;;;23.00;95.30;;;;;;5058924;28;20522;-54
2022/06/27 12:03:04;;;;;;;3.63;2.00;;;23.10;95.20;;;;;;5054020;28;20881;-57
2022/06/27 12:05:32;;;;;;;2.30;2.00;;;23.20;94.80;;;;;;5055943;28;21207;-54
2022/06/27 12:08:01;;;;;;;4.77;2.60;;;23.20;94.90;;;;;;5054729;28;20489;-55
2022/06/27 12:10:45;;;;;;;2.57;2.30;;;23.10;94.80;;;;;;5043965;28;20493;-54
2022/06/27 12:13:14;;;;;;;3.43;2.30;;;23.10;94.50;;;;;;5061182;28;20471;-53
2022/06/27 12:15:42;;;;;;;3.37;2.30;;;22.90;95.00;;;;;;5058457;28;20485;-53
2022/06/27 12:18:12;;;;;;;2.60;2.27;;;22.90;95.10;;;;;;5054340;28;20510;-57
2022/06/27 12:20:40;;;;;;;4.10;2.00;;;22.80;95.10;;;;;;5056049;28;21035;-53
2022/06/27 12:23:07;;;;;;;2.33;2.07;;;22.80;95.10;;;;;;5057527;28;20475;-59
2022/06/27 12:25:35;;;;;;;2.13;1.93;;;22.60;95.00;;;;;;5056738;28;20497;-56
2022/06/27 12:28:04;;;;;;;5.40;2.57;;;22.60;95.10;;;;;;5049943;28;20482;-53
2022/06/27 12:30:31;;;;;;;2.70;1.87;;;22.50;95.50;;;;;;5058345;28;20955;-54
2022/06/27 12:32:57;;;;;;;3.80;2.30;;;22.30;94.20;;;;;;5053705;28;20849;-53
2022/06/27 12:35:24;;;;;;;2.30;1.80;;;22.30;95.90;;;;;;5050627;28;20506;-58
2022/06/27 12:37:51;;;;;;;2.20;1.73;;;22.40;95.60;;;;;;5051631;28;20930;-52
2022/06/27 12:40:18;;;;;;;2.30;2.10;;;22.40;95.60;;;;;;5055110;28;20482;-52
2022/06/27 12:42:44;;;;;;;2.10;1.73;;;22.60;95.60;;;;;;5056212;28;20987;-55
2022/06/27 12:45:14;;;;;;;2.10;1.90;;;22.60;95.90;;;;;;5050132;28;20475;-55
2022/06/27 12:47:40;;;;;;;7.47;5.10;;;22.80;96.50;;;;;;5048623;28;20988;-54
2022/06/27 12:50:07;;;;;;;4.30;1.90;;;22.90;96.00;;;;;;5038303;28;21027;-55
2022/06/27 12:52:34;;;;;;;2.20;1.93;;;23.00;95.00;;;;;;5059296;28;20486;-57
2022/06/27 12:55:01;;;;;;;4.73;1.67;;;23.00;94.60;;;;;;5055275;28;20963;-54
2022/06/27 12:57:27;;;;;;;3.03;1.77;;;22.90;95.50;;;;;;5055144;28;21026;-60